sensor_id;sensor_type;location;lat;lon;timestamp;temperature;humidity
21815;DHT22;11069;48.988;8.450;2023-04-03T00:01:16;5.40;99.90
21815;DHT22;11069;48.988;8.450;2023-04-03T00:03:42;5.40;99.90
21815;DHT22;11069;48.988;8.450;2023-04-03T00:06:08;5.30;99.90
21815;DHT22;11069;48.988;8.450;2023-04-03T00:08:35;5.40;99.90
21815;DHT22;11069;48.988;8.450;2023-04-03T00:11:02;5.30;99.90
21815;DHT22;11069;48.988;8.450;2023-04-03T00:13:31;5.30;99.90
21815;DHT22;11069;48.988;8.450;2023-04-03T00:15:56;5.30;99.90
21815;DHT22;11069;48.988;8.450;2023-04-03T00:18:22;5.30;99.90
21815;DHT22;11069;48.988;8.450;2023-04-03T00:20:48;5.30;99.90
21815;DHT22;11069;48.988;8.450;2023-04-03T00:23:14;5.30;99.90
21815;DHT22;11069;48.988;8.450;2023-04-03T00:25:40;5.30;99.90
21815;DHT22;11069;48.988;8.450;2023-04-03T00:28:06;5.30;99.90
21815;DHT22;11069;48.988;8.450;2023-04-03T00:30:32;5.30;99.90
21815;DHT22;11069;48.988;8.450;2023-04-03T00:32:58;5.20;99.90
21815;DHT22;11069;48.988;8.450;2023-04-03T00:35:24;5.30;99.90
21815;DHT22;11069;48.988;8.450;2023-04-03T00:37:54;5.30;99.90
21815;DHT22;11069;48.988;8.450;2023-04-03T00:40:22;5.40;99.90
21815;DHT22;11069;48.988;8.450;2023-04-03T00:42:52;5.30;99.90
21815;DHT22;11069;48.988;8.450;2023-04-03T00:45:22;5.30;99.90
21815;DHT22;11069;48.988;8.450;2023-04-03T00:47:49;5.30;99.90
21815;DHT22;11069;48.988;8.450;2023-04-03T00:50:15;5.40;99.90
21815;DHT22;11069;48.988;8.450;2023-04-03T00:52:41;5.30;99.90
21815;DHT22;11069;48.988;8.450;2023-04-03T00:55:08;5.30;99.90
21815;DHT22;11069;48.988;8.450;2023-04-03T00:57:34;5.30;99.90
21815;DHT22;11069;48.988;8.450;2023-04-03T01:00:11;5.30;99.90
21815;DHT22;11069;48.988;8.450;2023-04-03T01:02:38;5.30;99.90
21815;DHT22;11069;48.988;8.450;2023-04-03T01:05:06;5.30;99.90
21815;DHT22;11069;48.988;8.450;2023-04-03T01:07:32;5.20;99.90
21815;DHT22;11069;48.988;8.450;2023-04-03T01:10:02;5.20;99.90
21815;DHT22;11069;48.988;8.450;2023-04-03T01:12:35;5.20;99.90
21815;DHT22;11069;48.988;8.450;2023-04-03T01:15:09;5.20;99.90
21815;DHT22;11069;48.988;8.450;2023-04-03T01:28:22;5.00;99.90
21815;DHT22;11069;48.988;8.450;2023-04-03T01:33:22;5.00;99.90
21815;DHT22;11069;48.988;8.450;2023-04-03T01:35:47;4.90;99.90
21815;DHT22;11069;48.988;8.450;2023-04-03T01:38:13;4.90;99.90
21815;DHT22;11069;48.988;8.450;2023-04-03T01:40:38;4.90;99.90
21815;DHT22;11069;48.988;8.450;2023-04-03T01:43:04;4.80;99.90
21815;DHT22;11069;48.988;8.450;2023-04-03T01:45:30;4.90;99.90
21815;DHT22;11069;48.988;8.450;2023-04-03T01:47:56;4.80;99.90
21815;DHT22;11069;48.988;8.450;2023-04-03T01:50:21;4.80;99.90
21815;DHT22;11069;48.988;8.450;2023-04-03T01:52:47;4.80;99.90
21815;DHT22;11069;48.988;8.450;2023-04-03T01:55:13;4.70;99.90
21815;DHT22;11069;48.988;8.450;2023-04-03T01:57:38;4.70;99.90
21815;DHT22;11069;48.988;8.450;2023-04-03T02:00:07;4.60;99.90
21815;DHT22;11069;48.988;8.450;2023-04-03T02:02:33;4.60;99.90
21815;DHT22;11069;48.988;8.450;2023-04-03T02:04:58;4.60;99.90
21815;DHT22;11069;48.988;8.450;2023-04-03T02:07:24;4.60;99.90
21815;DHT22;11069;48.988;8.450;2023-04-03T02:09:50;4.50;99.90
21815;DHT22;11069;48.988;8.450;2023-04-03T02:12:15;4.50;99.90
21815;DHT22;11069;48.988;8.450;2023-04-03T02:14:41;4.50;99.90
21815;DHT22;11069;48.988;8.450;2023-04-03T02:17:06;4.40;99.90
21815;DHT22;11069;48.988;8.450;2023-04-03T02:19:34;4.40;99.90
21815;DHT22;11069;48.988;8.450;2023-04-03T02:22:01;4.40;99.90
21815;DHT22;11069;48.988;8.450;2023-04-03T02:24:27;4.30;99.90
21815;DHT22;11069;48.988;8.450;2023-04-03T02:26:53;4.30;99.90
21815;DHT22;11069;48.988;8.450;2023-04-03T02:29:19;4.30;99.90
21815;DHT22;11069;48.988;8.450;2023-04-03T02:31:44;4.30;99.90
21815;DHT22;11069;48.988;8.450;2023-04-03T02:34:10;4.20;99.90
21815;DHT22;11069;48.988;8.450;2023-04-03T02:36:36;4.10;99.90
21815;DHT22;11069;48.988;8.450;2023-04-03T02:39:01;4.10;99.90
21815;DHT22;11069;48.988;8.450;2023-04-03T02:41:27;4.00;99.90
21815;DHT22;11069;48.988;8.450;2023-04-03T02:44:00;4.00;99.90
21815;DHT22;11069;48.988;8.450;2023-04-03T02:46:26;4.00;99.90
21815;DHT22;11069;48.988;8.450;2023-04-03T02:48:51;3.90;99.90
21815;DHT22;11069;48.988;8.450;2023-04-03T02:51:17;3.80;99.90
21815;DHT22;11069;48.988;8.450;2023-04-03T02:53:43;3.80;99.90
21815;DHT22;11069;48.988;8.450;2023-04-03T02:56:08;3.70;99.90
21815;DHT22;11069;48.988;8.450;2023-04-03T02:58:34;3.60;99.90
21815;DHT22;11069;48.988;8.450;2023-04-03T03:01:00;3.60;99.90
21815;DHT22;11069;48.988;8.450;2023-04-03T03:03:25;3.60;99.90
21815;DHT22;11069;48.988;8.450;2023-04-03T03:06:01;3.60;99.90
21815;DHT22;11069;48.988;8.450;2023-04-03T03:08:27;3.50;99.90
21815;DHT22;11069;48.988;8.450;2023-04-03T03:10:52;3.50;99.90
21815;DHT22;11069;48.988;8.450;2023-04-03T03:13:18;3.50;99.90
21815;DHT22;11069;48.988;8.450;2023-04-03T03:15:43;3.60;99.90
21815;DHT22;11069;48.988;8.450;2023-04-03T03:18:09;3.60;99.90
21815;DHT22;11069;48.988;8.450;2023-04-03T03:20:34;3.60;99.90
21815;DHT22;11069;48.988;8.450;2023-04-03T03:23:00;3.60;99.90
21815;DHT22;11069;48.988;8.450;2023-04-03T03:25:25;3.60;99.90
21815;DHT22;11069;48.988;8.450;2023-04-03T03:27:51;3.60;99.90
21815;DHT22;11069;48.988;8.450;2023-04-03T03:30:16;3.60;99.90
21815;DHT22;11069;48.988;8.450;2023-04-03T03:32:42;3.60;99.90
21815;DHT22;11069;48.988;8.450;2023-04-03T03:35:08;3.60;99.90
21815;DHT22;11069;48.988;8.450;2023-04-03T03:37:33;3.70;99.90
21815;DHT22;11069;48.988;8.450;2023-04-03T03:39:59;3.60;99.90
21815;DHT22;11069;48.988;8.450;2023-04-03T03:42:25;3.70;99.90
21815;DHT22;11069;48.988;8.450;2023-04-03T03:44:50;3.70;99.90
21815;DHT22;11069;48.988;8.450;2023-04-03T03:47:17;3.70;99.90
21815;DHT22;11069;48.988;8.450;2023-04-03T03:49:42;3.70;99.90
21815;DHT22;11069;48.988;8.450;2023-04-03T03:52:08;3.70;99.90
21815;DHT22;11069;48.988;8.450;2023-04-03T03:54:36;3.70;99.90
21815;DHT22;11069;48.988;8.450;2023-04-03T03:57:02;3.80;99.90
21815;DHT22;11069;48.988;8.450;2023-04-03T03:59:27;3.80;99.90
21815;DHT22;11069;48.988;8.450;2023-04-03T04:01:53;3.80;99.90
21815;DHT22;11069;48.988;8.450;2023-04-03T04:04:18;3.80;99.90
21815;DHT22;11069;48.988;8.450;2023-04-03T04:06:47;3.80;99.90
21815;DHT22;11069;48.988;8.450;2023-04-03T04:09:13;3.80;99.90
21815;DHT22;11069;48.988;8.450;2023-04-03T04:11:38;3.90;99.90
21815;DHT22;11069;48.988;8.450;2023-04-03T04:14:06;3.90;99.90
21815;DHT22;11069;48.988;8.450;2023-04-03T04:16:32;3.90;99.90
21815;DHT22;11069;48.988;8.450;2023-04-03T04:18:57;3.90;99.90
21815;DHT22;11069;48.988;8.450;2023-04-03T04:21:23;3.90;99.90
21815;DHT22;11069;48.988;8.450;2023-04-03T04:23:51;3.90;99.90
21815;DHT22;11069;48.988;8.450;2023-04-03T04:26:17;3.90;99.90
21815;DHT22;11069;48.988;8.450;2023-04-03T04:28:43;4.00;99.90
21815;DHT22;11069;48.988;8.450;2023-04-03T04:31:09;4.00;99.90
21815;DHT22;11069;48.988;8.450;2023-04-03T04:33:34;4.00;99.90
21815;DHT22;11069;48.988;8.450;2023-04-03T04:36:00;4.00;99.90
21815;DHT22;11069;48.988;8.450;2023-04-03T04:38:25;4.00;99.90
21815;DHT22;11069;48.988;8.450;2023-04-03T04:40:51;3.90;99.90
21815;DHT22;11069;48.988;8.450;2023-04-03T04:43:19;3.90;99.90
21815;DHT22;11069;48.988;8.450;2023-04-03T04:45:45;3.90;99.90
21815;DHT22;11069;48.988;8.450;2023-04-03T04:48:11;3.90;99.90
21815;DHT22;11069;48.988;8.450;2023-04-03T04:50:37;3.90;99.90
21815;DHT22;11069;48.988;8.450;2023-04-03T04:53:02;3.90;99.90
21815;DHT22;11069;48.988;8.450;2023-04-03T04:55:29;3.80;99.90
21815;DHT22;11069;48.988;8.450;2023-04-03T04:57:55;3.80;99.90
21815;DHT22;11069;48.988;8.450;2023-04-03T05:00:21;3.70;99.90
21815;DHT22;11069;48.988;8.450;2023-04-03T05:02:46;3.70;99.90
21815;DHT22;11069;48.988;8.450;2023-04-03T05:05:12;3.60;99.90
21815;DHT22;11069;48.988;8.450;2023-04-03T05:07:37;3.70;99.90
21815;DHT22;11069;48.988;8.450;2023-04-03T05:10:03;3.70;99.90
21815;DHT22;11069;48.988;8.450;2023-04-03T05:12:29;3.70;99.90
21815;DHT22;11069;48.988;8.450;2023-04-03T05:14:55;3.70;99.90
21815;DHT22;11069;48.988;8.450;2023-04-03T05:17:20;3.70;99.90
21815;DHT22;11069;48.988;8.450;2023-04-03T05:19:46;3.70;99.90
21815;DHT22;11069;48.988;8.450;2023-04-03T05:22:12;3.60;99.90
21815;DHT22;11069;48.988;8.450;2023-04-03T05:24:37;3.50;99.90
21815;DHT22;11069;48.988;8.450;2023-04-03T05:27:03;3.50;99.90
21815;DHT22;11069;48.988;8.450;2023-04-03T05:29:29;3.40;99.90
21815;DHT22;11069;48.988;8.450;2023-04-03T05:31:54;3.40;99.90
21815;DHT22;11069;48.988;8.450;2023-04-03T05:34:20;3.40;99.90
21815;DHT22;11069;48.988;8.450;2023-04-03T05:36:46;3.40;99.90
21815;DHT22;11069;48.988;8.450;2023-04-03T05:39:11;3.30;99.90
21815;DHT22;11069;48.988;8.450;2023-04-03T05:41:37;3.40;99.90
21815;DHT22;11069;48.988;8.450;2023-04-03T05:44:02;3.50;99.90
21815;DHT22;11069;48.988;8.450;2023-04-03T05:46:28;3.50;99.90
21815;DHT22;11069;48.988;8.450;2023-04-03T05:48:54;3.60;99.90
21815;DHT22;11069;48.988;8.450;2023-04-03T05:51:24;3.60;99.90
21815;DHT22;11069;48.988;8.450;2023-04-03T05:53:55;3.70;99.90
21815;DHT22;11069;48.988;8.450;2023-04-03T05:56:22;3.70;99.90
21815;DHT22;11069;48.988;8.450;2023-04-03T05:58:47;3.70;99.90
21815;DHT22;11069;48.988;8.450;2023-04-03T06:01:13;3.80;99.90
21815;DHT22;11069;48.988;8.450;2023-04-03T06:03:38;3.80;99.90
21815;DHT22;11069;48.988;8.450;2023-04-03T06:06:05;3.80;99.90
21815;DHT22;11069;48.988;8.450;2023-04-03T06:08:31;3.90;99.90
21815;DHT22;11069;48.988;8.450;2023-04-03T06:10:57;3.90;99.90
21815;DHT22;11069;48.988;8.450;2023-04-03T06:13:22;4.00;99.90
21815;DHT22;11069;48.988;8.450;2023-04-03T06:15:49;4.00;99.90
21815;DHT22;11069;48.988;8.450;2023-04-03T06:18:14;4.00;99.90
21815;DHT22;11069;48.988;8.450;2023-04-03T06:20:40;4.00;99.90
21815;DHT22;11069;48.988;8.450;2023-04-03T06:23:06;4.10;99.90
21815;DHT22;11069;48.988;8.450;2023-04-03T06:25:31;4.20;99.90
21815;DHT22;11069;48.988;8.450;2023-04-03T06:27:58;4.30;99.90
21815;DHT22;11069;48.988;8.450;2023-04-03T06:30:24;4.30;99.90
21815;DHT22;11069;48.988;8.450;2023-04-03T06:32:50;4.40;99.90
21815;DHT22;11069;48.988;8.450;2023-04-03T06:35:16;4.50;99.90
21815;DHT22;11069;48.988;8.450;2023-04-03T06:37:42;4.60;99.90
21815;DHT22;11069;48.988;8.450;2023-04-03T06:40:21;5.40;99.90
21815;DHT22;11069;48.988;8.450;2023-04-03T06:42:47;6.00;99.90
21815;DHT22;11069;48.988;8.450;2023-04-03T06:45:13;6.10;99.90
21815;DHT22;11069;48.988;8.450;2023-04-03T06:47:39;6.50;99.90
21815;DHT22;11069;48.988;8.450;2023-04-03T06:50:05;6.20;99.90
21815;DHT22;11069;48.988;8.450;2023-04-03T06:52:32;6.70;99.90
21815;DHT22;11069;48.988;8.450;2023-04-03T06:54:57;7.20;99.90
21815;DHT22;11069;48.988;8.450;2023-04-03T06:57:25;7.90;99.90
21815;DHT22;11069;48.988;8.450;2023-04-03T06:59:50;7.30;99.90
21815;DHT22;11069;48.988;8.450;2023-04-03T07:02:16;6.70;99.90
21815;DHT22;11069;48.988;8.450;2023-04-03T07:04:42;5.90;99.90
21815;DHT22;11069;48.988;8.450;2023-04-03T07:07:08;5.70;99.90
21815;DHT22;11069;48.988;8.450;2023-04-03T07:09:34;5.90;99.90
21815;DHT22;11069;48.988;8.450;2023-04-03T07:11:59;6.00;99.90
21815;DHT22;11069;48.988;8.450;2023-04-03T07:14:26;6.10;99.90
21815;DHT22;11069;48.988;8.450;2023-04-03T07:16:51;6.10;99.90
21815;DHT22;11069;48.988;8.450;2023-04-03T07:19:17;6.20;99.90
21815;DHT22;11069;48.988;8.450;2023-04-03T07:21:44;6.10;99.90
21815;DHT22;11069;48.988;8.450;2023-04-03T07:24:10;6.30;99.90
21815;DHT22;11069;48.988;8.450;2023-04-03T07:26:36;6.70;99.90
21815;DHT22;11069;48.988;8.450;2023-04-03T07:29:01;6.90;99.90
21815;DHT22;11069;48.988;8.450;2023-04-03T07:31:27;7.00;99.90
21815;DHT22;11069;48.988;8.450;2023-04-03T07:33:52;7.70;99.90
21815;DHT22;11069;48.988;8.450;2023-04-03T07:36:20;8.50;99.90
21815;DHT22;11069;48.988;8.450;2023-04-03T07:38:47;8.00;99.90
21815;DHT22;11069;48.988;8.450;2023-04-03T07:41:18;8.50;99.90
21815;DHT22;11069;48.988;8.450;2023-04-03T07:43:44;7.90;99.90
21815;DHT22;11069;48.988;8.450;2023-04-03T07:46:10;7.60;99.90
21815;DHT22;11069;48.988;8.450;2023-04-03T07:48:36;8.20;99.90
21815;DHT22;11069;48.988;8.450;2023-04-03T07:51:03;8.50;99.90
21815;DHT22;11069;48.988;8.450;2023-04-03T07:53:29;9.10;99.90
21815;DHT22;11069;48.988;8.450;2023-04-03T07:55:57;9.60;99.90
21815;DHT22;11069;48.988;8.450;2023-04-03T07:58:22;9.50;99.90
21815;DHT22;11069;48.988;8.450;2023-04-03T08:00:48;9.20;99.90
21815;DHT22;11069;48.988;8.450;2023-04-03T08:03:14;9.10;99.90
21815;DHT22;11069;48.988;8.450;2023-04-03T08:05:46;9.00;99.90
21815;DHT22;11069;48.988;8.450;2023-04-03T08:08:17;9.30;99.90
21815;DHT22;11069;48.988;8.450;2023-04-03T08:10:43;9.30;99.90
21815;DHT22;11069;48.988;8.450;2023-04-03T08:13:09;9.30;99.90
21815;DHT22;11069;48.988;8.450;2023-04-03T08:15:38;9.60;99.90
21815;DHT22;11069;48.988;8.450;2023-04-03T08:18:04;9.40;99.90
21815;DHT22;11069;48.988;8.450;2023-04-03T08:20:29;9.90;99.90
21815;DHT22;11069;48.988;8.450;2023-04-03T08:22:58;9.20;99.90
21815;DHT22;11069;48.988;8.450;2023-04-03T08:25:23;8.70;99.90
21815;DHT22;11069;48.988;8.450;2023-04-03T08:27:49;8.50;99.90
21815;DHT22;11069;48.988;8.450;2023-04-03T08:30:15;8.10;99.90
21815;DHT22;11069;48.988;8.450;2023-04-03T08:32:41;8.40;99.90
21815;DHT22;11069;48.988;8.450;2023-04-03T08:35:10;8.60;99.90
21815;DHT22;11069;48.988;8.450;2023-04-03T08:37:37;9.10;99.90
21815;DHT22;11069;48.988;8.450;2023-04-03T08:40:07;9.40;99.90
21815;DHT22;11069;48.988;8.450;2023-04-03T08:45:12;9.00;99.90
21815;DHT22;11069;48.988;8.450;2023-04-03T08:48:04;9.80;99.90
21815;DHT22;11069;48.988;8.450;2023-04-03T08:50:37;9.40;99.90
21815;DHT22;11069;48.988;8.450;2023-04-03T08:53:14;9.50;99.90
21815;DHT22;11069;48.988;8.450;2023-04-03T08:55:46;9.50;99.90
21815;DHT22;11069;48.988;8.450;2023-04-03T09:01:04;10.70;99.90
21815;DHT22;11069;48.988;8.450;2023-04-03T09:03:31;10.80;99.40
21815;DHT22;11069;48.988;8.450;2023-04-03T09:08:32;10.20;99.90
21815;DHT22;11069;48.988;8.450;2023-04-03T09:13:57;10.40;98.10
21815;DHT22;11069;48.988;8.450;2023-04-03T09:16:55;10.00;97.50
21815;DHT22;11069;48.988;8.450;2023-04-03T09:21:56;8.80;99.90
21815;DHT22;11069;48.988;8.450;2023-04-03T09:24:23;8.40;99.90
21815;DHT22;11069;48.988;8.450;2023-04-03T09:27:05;8.20;99.90
21815;DHT22;11069;48.988;8.450;2023-04-03T09:29:38;8.30;99.90
21815;DHT22;11069;48.988;8.450;2023-04-03T09:32:26;8.70;99.90
21815;DHT22;11069;48.988;8.450;2023-04-03T09:34:54;8.40;99.90
21815;DHT22;11069;48.988;8.450;2023-04-03T09:37:38;8.20;99.90
21815;DHT22;11069;48.988;8.450;2023-04-03T09:40:05;8.20;99.90
21815;DHT22;11069;48.988;8.450;2023-04-03T09:42:32;8.30;99.90
21815;DHT22;11069;48.988;8.450;2023-04-03T09:45:03;8.60;98.50
21815;DHT22;11069;48.988;8.450;2023-04-03T09:47:33;8.60;98.80
21815;DHT22;11069;48.988;8.450;2023-04-03T09:52:45;10.80;96.80
21815;DHT22;11069;48.988;8.450;2023-04-03T09:57:39;9.70;95.20
21815;DHT22;11069;48.988;8.450;2023-04-03T10:00:10;9.20;96.40
21815;DHT22;11069;48.988;8.450;2023-04-03T10:02:44;9.30;96.60
21815;DHT22;11069;48.988;8.450;2023-04-03T10:05:50;9.20;95.50
21815;DHT22;11069;48.988;8.450;2023-04-03T10:13:35;9.20;95.10
21815;DHT22;11069;48.988;8.450;2023-04-03T10:16:08;8.90;96.90
21815;DHT22;11069;48.988;8.450;2023-04-03T10:19:20;9.30;97.80
21815;DHT22;11069;48.988;8.450;2023-04-03T10:21:53;10.10;95.00
21815;DHT22;11069;48.988;8.450;2023-04-03T10:33:41;9.00;95.20
21815;DHT22;11069;48.988;8.450;2023-04-03T10:47:15;10.20;92.50
21815;DHT22;11069;48.988;8.450;2023-04-03T10:49:58;10.20;93.60
21815;DHT22;11069;48.988;8.450;2023-04-03T10:53:11;10.00;92.50
21815;DHT22;11069;48.988;8.450;2023-04-03T10:57:52;11.00;92.90
21815;DHT22;11069;48.988;8.450;2023-04-03T11:00:21;11.20;90.90
21815;DHT22;11069;48.988;8.450;2023-04-03T11:03:03;10.80;91.80
21815;DHT22;11069;48.988;8.450;2023-04-03T11:05:52;10.60;92.30
21815;DHT22;11069;48.988;8.450;2023-04-03T11:08:35;11.50;91.20
21815;DHT22;11069;48.988;8.450;2023-04-03T11:11:08;12.70;89.60
21815;DHT22;11069;48.988;8.450;2023-04-03T11:13:40;12.20;89.70
21815;DHT22;11069;48.988;8.450;2023-04-03T11:16:08;11.30;90.20
21815;DHT22;11069;48.988;8.450;2023-04-03T11:18:43;10.60;89.70
21815;DHT22;11069;48.988;8.450;2023-04-03T11:21:20;10.40;90.70
21815;DHT22;11069;48.988;8.450;2023-04-03T11:23:47;9.90;91.30
21815;DHT22;11069;48.988;8.450;2023-04-03T11:26:19;9.90;91.10
21815;DHT22;11069;48.988;8.450;2023-04-03T11:28:56;9.90;92.20
21815;DHT22;11069;48.988;8.450;2023-04-03T11:34:29;10.30;92.10
21815;DHT22;11069;48.988;8.450;2023-04-03T11:37:00;10.30;92.30
21815;DHT22;11069;48.988;8.450;2023-04-03T11:39:31;10.10;90.70
21815;DHT22;11069;48.988;8.450;2023-04-03T11:42:53;10.10;92.20
21815;DHT22;11069;48.988;8.450;2023-04-03T11:48:00;10.00;92.80
21815;DHT22;11069;48.988;8.450;2023-04-03T11:50:39;10.20;91.60
21815;DHT22;11069;48.988;8.450;2023-04-03T11:58:09;9.70;92.50
21815;DHT22;11069;48.988;8.450;2023-04-03T12:14:01;10.40;92.60
21815;DHT22;11069;48.988;8.450;2023-04-03T12:38:17;9.50;92.60
21815;DHT22;11069;48.988;8.450;2023-04-03T12:41:11;9.60;92.80
21815;DHT22;11069;48.988;8.450;2023-04-03T12:46:11;9.40;92.50
21815;DHT22;11069;48.988;8.450;2023-04-03T12:48:58;9.40;92.50
21815;DHT22;11069;48.988;8.450;2023-04-03T12:54:39;9.30;92.70
21815;DHT22;11069;48.988;8.450;2023-04-03T12:59:41;8.70;93.20
21815;DHT22;11069;48.988;8.450;2023-04-03T13:04:51;8.70;93.70
21815;DHT22;11069;48.988;8.450;2023-04-03T13:10:00;9.20;92.30
21815;DHT22;11069;48.988;8.450;2023-04-03T13:12:26;9.50;92.20
21815;DHT22;11069;48.988;8.450;2023-04-03T13:15:00;9.30;92.40
21815;DHT22;11069;48.988;8.450;2023-04-03T13:17:27;9.10;92.00
21815;DHT22;11069;48.988;8.450;2023-04-03T13:19:53;9.00;91.90
21815;DHT22;11069;48.988;8.450;2023-04-03T13:24:49;8.80;92.40
21815;DHT22;11069;48.988;8.450;2023-04-03T13:27:16;8.90;92.50
21815;DHT22;11069;48.988;8.450;2023-04-03T13:29:42;9.00;92.90
21815;DHT22;11069;48.988;8.450;2023-04-03T13:32:21;9.30;91.90
21815;DHT22;11069;48.988;8.450;2023-04-03T13:34:48;9.60;92.70
21815;DHT22;11069;48.988;8.450;2023-04-03T13:37:40;9.80;91.40
21815;DHT22;11069;48.988;8.450;2023-04-03T13:40:21;9.50;91.10
21815;DHT22;11069;48.988;8.450;2023-04-03T13:43:05;9.40;91.10
21815;DHT22;11069;48.988;8.450;2023-04-03T13:45:42;9.50;90.30
21815;DHT22;11069;48.988;8.450;2023-04-03T13:48:19;9.40;91.30
21815;DHT22;11069;48.988;8.450;2023-04-03T13:51:00;9.10;91.70
21815;DHT22;11069;48.988;8.450;2023-04-03T13:53:26;9.00;91.50
21815;DHT22;11069;48.988;8.450;2023-04-03T13:58:27;9.40;90.00
21815;DHT22;11069;48.988;8.450;2023-04-03T14:01:14;9.50;90.50
21815;DHT22;11069;48.988;8.450;2023-04-03T14:03:43;9.40;88.50
21815;DHT22;11069;48.988;8.450;2023-04-03T14:06:15;9.30;91.70
21815;DHT22;11069;48.988;8.450;2023-04-03T14:08:42;9.30;90.50
21815;DHT22;11069;48.988;8.450;2023-04-03T14:11:17;9.30;91.20
21815;DHT22;11069;48.988;8.450;2023-04-03T14:13:47;9.30;89.00
21815;DHT22;11069;48.988;8.450;2023-04-03T14:16:15;9.30;91.20
21815;DHT22;11069;48.988;8.450;2023-04-03T14:18:43;9.20;91.70
21815;DHT22;11069;48.988;8.450;2023-04-03T14:21:11;9.20;90.60
21815;DHT22;11069;48.988;8.450;2023-04-03T14:23:37;9.60;91.50
21815;DHT22;11069;48.988;8.450;2023-04-03T14:26:04;9.60;91.60
21815;DHT22;11069;48.988;8.450;2023-04-03T14:28:31;9.50;90.40
21815;DHT22;11069;48.988;8.450;2023-04-03T14:30:57;10.00;90.20
21815;DHT22;11069;48.988;8.450;2023-04-03T14:33:23;10.30;89.40
21815;DHT22;11069;48.988;8.450;2023-04-03T14:35:49;10.40;89.30
21815;DHT22;11069;48.988;8.450;2023-04-03T14:38:32;10.50;88.40
21815;DHT22;11069;48.988;8.450;2023-04-03T14:40:58;10.40;87.50
21815;DHT22;11069;48.988;8.450;2023-04-03T14:43:24;10.50;87.60
21815;DHT22;11069;48.988;8.450;2023-04-03T14:45:50;9.90;87.80
21815;DHT22;11069;48.988;8.450;2023-04-03T14:48:22;9.60;90.00
21815;DHT22;11069;48.988;8.450;2023-04-03T14:50:49;9.40;90.50
21815;DHT22;11069;48.988;8.450;2023-04-03T14:53:16;9.40;90.50
21815;DHT22;11069;48.988;8.450;2023-04-03T14:55:44;9.20;91.00
21815;DHT22;11069;48.988;8.450;2023-04-03T14:58:15;9.30;90.70
21815;DHT22;11069;48.988;8.450;2023-04-03T15:00:41;9.70;90.70
21815;DHT22;11069;48.988;8.450;2023-04-03T15:03:17;9.80;89.70
21815;DHT22;11069;48.988;8.450;2023-04-03T15:05:47;9.60;87.10
21815;DHT22;11069;48.988;8.450;2023-04-03T15:08:27;9.10;86.90
21815;DHT22;11069;48.988;8.450;2023-04-03T15:10:56;9.30;90.30
21815;DHT22;11069;48.988;8.450;2023-04-03T15:13:23;10.60;86.70
21815;DHT22;11069;48.988;8.450;2023-04-03T15:15:50;11.40;86.70
21815;DHT22;11069;48.988;8.450;2023-04-03T15:18:22;12.50;82.30
21815;DHT22;11069;48.988;8.450;2023-04-03T15:20:48;12.30;80.10
21815;DHT22;11069;48.988;8.450;2023-04-03T15:23:15;11.00;81.90
21815;DHT22;11069;48.988;8.450;2023-04-03T15:25:48;10.30;83.60
21815;DHT22;11069;48.988;8.450;2023-04-03T15:28:20;9.50;87.20
21815;DHT22;11069;48.988;8.450;2023-04-03T15:30:47;9.90;88.60
21815;DHT22;11069;48.988;8.450;2023-04-03T15:33:13;10.90;86.90
21815;DHT22;11069;48.988;8.450;2023-04-03T15:35:39;12.00;81.70
21815;DHT22;11069;48.988;8.450;2023-04-03T15:38:04;12.60;77.00
21815;DHT22;11069;48.988;8.450;2023-04-03T15:40:39;13.10;74.90
21815;DHT22;11069;48.988;8.450;2023-04-03T15:43:06;13.30;75.80
21815;DHT22;11069;48.988;8.450;2023-04-03T15:45:34;13.30;73.80
21815;DHT22;11069;48.988;8.450;2023-04-03T15:48:01;12.90;74.90
21815;DHT22;11069;48.988;8.450;2023-04-03T15:50:27;12.40;74.20
21815;DHT22;11069;48.988;8.450;2023-04-03T15:52:53;11.80;75.90
21815;DHT22;11069;48.988;8.450;2023-04-03T15:55:21;11.60;79.80
21815;DHT22;11069;48.988;8.450;2023-04-03T15:57:48;11.20;79.70
21815;DHT22;11069;48.988;8.450;2023-04-03T16:00:14;10.40;78.40
21815;DHT22;11069;48.988;8.450;2023-04-03T16:02:41;9.60;80.00
21815;DHT22;11069;48.988;8.450;2023-04-03T16:05:08;9.10;84.10
21815;DHT22;11069;48.988;8.450;2023-04-03T16:07:34;8.90;86.60
21815;DHT22;11069;48.988;8.450;2023-04-03T16:10:00;8.60;87.80
21815;DHT22;11069;48.988;8.450;2023-04-03T16:12:25;8.70;86.90
21815;DHT22;11069;48.988;8.450;2023-04-03T16:14:51;8.70;86.80
21815;DHT22;11069;48.988;8.450;2023-04-03T16:17:17;8.40;86.90
21815;DHT22;11069;48.988;8.450;2023-04-03T16:19:43;8.30;86.60
21815;DHT22;11069;48.988;8.450;2023-04-03T16:22:08;8.40;87.80
21815;DHT22;11069;48.988;8.450;2023-04-03T16:24:34;8.40;87.10
21815;DHT22;11069;48.988;8.450;2023-04-03T16:27:01;8.50;88.30
21815;DHT22;11069;48.988;8.450;2023-04-03T16:29:26;8.50;87.10
21815;DHT22;11069;48.988;8.450;2023-04-03T16:31:52;8.70;87.60
21815;DHT22;11069;48.988;8.450;2023-04-03T16:34:18;8.80;87.70
21815;DHT22;11069;48.988;8.450;2023-04-03T16:36:43;8.90;86.10
21815;DHT22;11069;48.988;8.450;2023-04-03T16:39:09;8.80;87.80
21815;DHT22;11069;48.988;8.450;2023-04-03T16:41:37;8.70;87.00
21815;DHT22;11069;48.988;8.450;2023-04-03T16:44:03;8.40;86.50
21815;DHT22;11069;48.988;8.450;2023-04-03T16:46:28;8.20;86.10
21815;DHT22;11069;48.988;8.450;2023-04-03T16:48:54;8.10;86.30
21815;DHT22;11069;48.988;8.450;2023-04-03T16:51:28;7.90;87.30
21815;DHT22;11069;48.988;8.450;2023-04-03T16:53:55;7.80;88.80
21815;DHT22;11069;48.988;8.450;2023-04-03T16:56:20;7.80;89.80
21815;DHT22;11069;48.988;8.450;2023-04-03T16:58:47;7.70;90.00
21815;DHT22;11069;48.988;8.450;2023-04-03T17:01:17;7.70;88.20
21815;DHT22;11069;48.988;8.450;2023-04-03T17:03:44;7.70;88.50
21815;DHT22;11069;48.988;8.450;2023-04-03T17:06:12;7.70;88.80
21815;DHT22;11069;48.988;8.450;2023-04-03T17:08:47;7.60;87.70
21815;DHT22;11069;48.988;8.450;2023-04-03T17:11:13;7.60;88.30
21815;DHT22;11069;48.988;8.450;2023-04-03T17:13:42;7.60;88.90
21815;DHT22;11069;48.988;8.450;2023-04-03T17:16:13;7.60;89.40
21815;DHT22;11069;48.988;8.450;2023-04-03T17:18:40;7.50;90.20
21815;DHT22;11069;48.988;8.450;2023-04-03T17:21:06;7.50;88.70
21815;DHT22;11069;48.988;8.450;2023-04-03T17:23:33;7.40;90.20
21815;DHT22;11069;48.988;8.450;2023-04-03T17:26:00;7.40;90.20
21815;DHT22;11069;48.988;8.450;2023-04-03T17:28:26;7.30;90.50
21815;DHT22;11069;48.988;8.450;2023-04-03T17:30:55;7.30;90.50
21815;DHT22;11069;48.988;8.450;2023-04-03T17:33:22;7.30;90.50
21815;DHT22;11069;48.988;8.450;2023-04-03T17:35:47;7.30;90.40
21815;DHT22;11069;48.988;8.450;2023-04-03T17:38:13;7.30;90.60
21815;DHT22;11069;48.988;8.450;2023-04-03T17:40:39;7.20;90.60
21815;DHT22;11069;48.988;8.450;2023-04-03T17:43:04;7.00;90.40
21815;DHT22;11069;48.988;8.450;2023-04-03T17:45:30;7.00;91.10
21815;DHT22;11069;48.988;8.450;2023-04-03T17:47:59;6.90;91.10
21815;DHT22;11069;48.988;8.450;2023-04-03T17:50:24;6.80;91.00
21815;DHT22;11069;48.988;8.450;2023-04-03T17:52:50;6.70;91.50
21815;DHT22;11069;48.988;8.450;2023-04-03T17:55:15;6.60;91.00
21815;DHT22;11069;48.988;8.450;2023-04-03T17:57:42;6.50;91.80